CheckWX is a tool to help pilots better visualize weather data.  It is not intended as a substitute for an official pre-flight weather briefing.

06:58:36 UTC

GVNP TAF
Praia International Airport
Praia, Cape Verde
TAF GVNP 210500Z 2106/2212 06008KT 5000 -TSRA BKN013 FM211600 09006KT 8000 NSW SCT014 FM220200 03010KT 9999 SCT014

Sep-21@
06:00 UTC

Sep-21 @ 06:00 UTC

Sep-21@
16:00 UTC

Sep-21 @ 16:00 UTC

TAF GVNP 210500Z 2106/2212 06008KT 5000 -TSRA BKN013
Wind
  • 060° at 8 KTS
Conditions
Light Thunderstorm, Light Rain
Cloud Levels
  • Broken at 1,300' AGL

Sep-21@
16:00 UTC

Sep-21 @ 16:00 UTC

Sep-22@
02:00 UTC

Sep-22 @ 02:00 UTC

FM211600 09006KT 8000 NSW SCT014

From

From Standard forecast or significant change

Wind
  • 090° at 6 KTS
Conditions
No significant weather
Cloud Levels
  • Scattered at 1,400' AGL

Sep-22@
02:00 UTC

Sep-22 @ 02:00 UTC

Sep-22@
12:00 UTC

Sep-22 @ 12:00 UTC

FM220200 03010KT 9999 SCT014

From

From Standard forecast or significant change

Wind
  • 030° at 10 KTS
Cloud Levels
  • Scattered at 1,400' AGL